KDEH/DEH METAR and TAF weather

Enter ICAO airport designator
Station Type Date Time Source
KDEH METAR 2021/09/23 20:15 UTC NOAA

KDEH 232015Z AUTO 31009KT 10SM CLR 20/06 A2999 RMK AO2


Station Type Date Time Source
KDEH Decoded METAR 2021/09/23 20:15 UTC NOAA

Decorah, IA, United States (KDEH) 43-17N 091-44W
Sep 23, 2021 - 04:15 PM EDT / 2021.09.23 2015 UTC
Wind: from the NW (310 degrees) at 10 MPH (9 KT):0
Visibility: 10 mile(s):0
Sky conditions: clear
Temperature: 68 F (20 C)
Dew Point: 42 F (6 C)
Relative Humidity: 39%
Pressure (altimeter): 29.99 in. Hg (1015 hPa)
ob: KDEH 232015Z AUTO 31009KT 10SM CLR 20/06 A2999 RMK AO2
cycle: 20

Station Type Date Time Source
KDEH TAF UTC NOAA

Error!

Example: see airport list